Research Triangle Park, North Carolina
Current Conditions -  °F | °C
As of 4:51 AM on Sunday 25 Jan 2015 (Local Time) from KRDU Reporting Station
Few Clouds Few Clouds  
Wind Chill: -1°   Ceiling: Unl
Heat Index: -1°   Visibility: 10mi
Dew Point: -4°   Wind: 3mph
Humidity: 79%   Direction: 280°W
Pressure: 29.88"   Gusts: NA
Location:  35.9144°N, 78.8655°W
Report Text: KRDU 250951Z 28003KT 10SM FEW250 M01/M04 A2988 RMK AO2 SLP121 T10061039 $
Loading
Personal Weather Stations






























Interactive Weather Map New forecast layout! Learn more

10-Day Weather Forecast

Advertisements
Track Severe Weather on mobile